createdAt,value
2023-02-16T00:01:26.528Z,84.43
2023-02-16T00:03:55.202Z,84.38
2023-02-16T00:06:22.541Z,84.33
2023-02-16T00:08:51.718Z,84.15
2023-02-16T00:11:39.282Z,83.93
2023-02-16T00:14:08.557Z,84.16
2023-02-16T00:16:35.909Z,84.62
2023-02-16T00:19:16.687Z,83.96
2023-02-16T00:21:43.189Z,83.93
2023-02-16T00:24:09.585Z,84.06
2023-02-16T00:26:36.035Z,84.15
2023-02-16T00:29:02.639Z,84.46
2023-02-16T00:31:33.100Z,84.53
2023-02-16T00:34:04.808Z,84.25
2023-02-16T00:36:31.187Z,84.51
2023-02-16T00:38:58.605Z,84.54
2023-02-16T00:41:43.990Z,84.68
2023-02-16T00:44:17.709Z,84.87
2023-02-16T00:46:45.020Z,84.87
2023-02-16T00:49:15.648Z,84.98
2023-02-16T00:51:42.581Z,84.79
2023-02-16T00:54:09.547Z,84.50
2023-02-16T00:56:36.935Z,84.71
2023-02-16T00:59:07.636Z,84.94
2023-02-16T01:01:37.486Z,84.91
2023-02-16T01:04:07.600Z,85.27
2023-02-16T01:06:52.773Z,84.92
2023-02-16T01:09:39.470Z,85.22
2023-02-16T01:12:18.312Z,85.40
2023-02-16T01:14:50.273Z,85.52
2023-02-16T01:17:16.754Z,85.44
2023-02-16T01:19:43.146Z,85.30
2023-02-16T01:22:09.566Z,84.86
2023-02-16T01:24:35.961Z,85.69
2023-02-16T01:27:02.509Z,85.17
2023-02-16T01:29:28.911Z,85.72
2023-02-16T01:31:55.487Z,85.91
2023-02-16T01:34:22.148Z,86.10
2023-02-16T01:36:49.283Z,86.20
2023-02-16T01:39:19.343Z,85.99
2023-02-16T01:42:14.456Z,86.61
2023-02-16T01:44:49.952Z,86.54
2023-02-16T01:47:38.054Z,86.33
2023-02-16T01:50:13.775Z,86.55
2023-02-16T01:52:44.362Z,86.47
2023-02-16T01:55:26.272Z,86.72
2023-02-16T01:58:05.394Z,86.65
2023-02-16T02:00:56.734Z,86.50
2023-02-16T02:03:53.397Z,86.59
2023-02-16T02:06:27.722Z,86.90
2023-02-16T02:09:01.930Z,86.63
2023-02-16T02:11:37.064Z,86.32
2023-02-16T02:14:11.775Z,86.46
2023-02-16T02:16:39.268Z,86.97
2023-02-16T02:19:05.770Z,87.47
2023-02-16T02:22:11.968Z,87.58
2023-02-16T02:25:03.030Z,87.45
2023-02-16T02:28:09.584Z,87.48
2023-02-16T02:30:53.825Z,87.82
2023-02-16T02:33:29.533Z,87.68
2023-02-16T02:36:14.400Z,87.88
2023-02-16T02:39:03.122Z,87.84
2023-02-16T02:42:05.304Z,87.84
2023-02-16T02:44:57.883Z,87.76
2023-02-16T02:47:37.162Z,88.18
2023-02-16T02:50:03.794Z,88.05
2023-02-16T02:52:30.320Z,87.81
2023-02-16T02:55:15.869Z,87.89
2023-02-16T02:58:06.058Z,87.76
2023-02-16T03:00:44.697Z,88.29
2023-02-16T03:03:32.959Z,87.94
2023-02-16T03:06:05.218Z,88.44
2023-02-16T03:08:34.833Z,87.65
2023-02-16T03:12:03.021Z,88.09
2023-02-16T03:14:43.528Z,87.96
2023-02-16T03:17:35.058Z,88.27
2023-02-16T03:20:22.980Z,88.58
2023-02-16T03:23:08.904Z,88.29
2023-02-16T03:25:57.554Z,88.10
2023-02-16T03:28:45.926Z,87.84
2023-02-16T03:31:18.671Z,87.71
2023-02-16T03:33:46.706Z,88.19
2023-02-16T03:36:13.223Z,87.72
2023-02-16T03:38:39.716Z,88.13
2023-02-16T03:41:06.591Z,88.07
2023-02-16T03:43:33.240Z,88.40
2023-02-16T03:45:59.962Z,88.45
2023-02-16T03:48:26.447Z,88.34
2023-02-16T03:50:52.842Z,88.21
2023-02-16T03:53:19.278Z,88.29
2023-02-16T03:55:47.664Z,88.72
2023-02-16T03:58:17.823Z,88.84
2023-02-16T04:00:44.912Z,88.78
2023-02-16T04:03:11.437Z,88.26
2023-02-16T04:05:38.079Z,88.69
2023-02-16T04:08:05.362Z,88.58
2023-02-16T04:10:31.904Z,88.36
2023-02-16T04:12:58.326Z,88.14
2023-02-16T04:15:28.195Z,88.47
2023-02-16T04:17:55.514Z,88.47
2023-02-16T04:20:25.099Z,88.03
2023-02-16T04:22:52.110Z,88.27
2023-02-16T04:25:19.309Z,88.64
2023-02-16T04:27:46.638Z,88.42
2023-02-16T04:30:16.118Z,88.42
2023-02-16T04:32:43.003Z,88.28
2023-02-16T04:35:10.206Z,88.45
2023-02-16T04:37:36.923Z,88.72
2023-02-16T04:40:04.740Z,88.45
2023-02-16T04:42:31.316Z,88.27
2023-02-16T04:44:57.801Z,88.24
2023-02-16T04:47:26.533Z,87.66
2023-02-16T04:49:54.091Z,87.76
2023-02-16T04:52:20.557Z,88.21
2023-02-16T04:54:47.325Z,88.48
2023-02-16T04:57:13.719Z,89.01
2023-02-16T04:59:40.074Z,88.72
2023-02-16T05:02:06.899Z,88.99
2023-02-16T05:04:33.453Z,89.19
2023-02-16T05:07:00.037Z,89.50
2023-02-16T05:09:26.469Z,89.47
2023-02-16T05:12:11.675Z,89.40
2023-02-16T05:14:46.935Z,89.29
2023-02-16T05:17:25.422Z,89.11
2023-02-16T05:20:01.536Z,89.41
2023-02-16T05:22:34.268Z,89.60
2023-02-16T05:25:01.901Z,89.70
2023-02-16T05:27:30.437Z,89.35
2023-02-16T05:29:57.955Z,89.70
2023-02-16T05:32:24.613Z,89.72
2023-02-16T05:34:51.094Z,90.07
2023-02-16T05:37:18.826Z,89.54
2023-02-16T05:39:46.032Z,89.58
2023-02-16T05:42:12.486Z,89.46
2023-02-16T05:44:39.021Z,89.49
2023-02-16T05:47:05.469Z,89.10
2023-02-16T05:49:31.950Z,89.48
2023-02-16T05:51:58.836Z,89.21
2023-02-16T05:54:25.462Z,89.09
2023-02-16T05:56:52.759Z,89.29
2023-02-16T05:59:19.842Z,89.05
2023-02-16T06:01:51.000Z,88.91
2023-02-16T06:04:18.219Z,89.07
2023-02-16T06:06:44.733Z,89.20
2023-02-16T06:09:12.043Z,89.45
2023-02-16T06:11:38.878Z,89.63
2023-02-16T06:14:12.464Z,89.02
2023-02-16T06:16:41.207Z,88.98
2023-02-16T06:19:08.681Z,88.84
2023-02-16T06:21:37.330Z,89.14
2023-02-16T06:24:04.513Z,88.78
2023-02-16T06:26:31.053Z,89.02
2023-02-16T06:28:57.819Z,88.77
2023-02-16T06:31:25.274Z,89.05
2023-02-16T06:33:52.899Z,88.71
2023-02-16T06:36:20.364Z,88.57
2023-02-16T06:38:47.120Z,89.02
2023-02-16T06:41:13.771Z,88.96
2023-02-16T06:43:40.175Z,88.60
2023-02-16T06:46:06.797Z,88.50
2023-02-16T06:48:33.346Z,88.54
2023-02-16T06:50:59.815Z,88.37
2023-02-16T06:53:26.288Z,88.39
2023-02-16T06:55:52.765Z,88.36
2023-02-16T06:58:19.511Z,88.32
2023-02-16T07:00:46.014Z,87.96
2023-02-16T07:03:12.505Z,88.26
2023-02-16T07:05:38.998Z,88.30
2023-02-16T07:08:05.408Z,88.29
2023-02-16T07:10:47.525Z,88.14
2023-02-16T07:13:16.223Z,87.67
2023-02-16T07:15:42.631Z,87.69
2023-02-16T07:18:09.256Z,88.02
2023-02-16T07:20:36.016Z,88.07
2023-02-16T07:23:02.394Z,87.85
2023-02-16T07:25:28.771Z,87.70
2023-02-16T07:27:55.285Z,87.16
2023-02-16T07:30:22.215Z,87.05
2023-02-16T07:32:48.664Z,87.09
2023-02-16T07:35:16.124Z,86.51
2023-02-16T07:37:42.561Z,86.65
2023-02-16T07:40:09.504Z,86.87
2023-02-16T07:42:35.925Z,86.68
2023-02-16T07:45:03.257Z,86.82
2023-02-16T07:47:29.798Z,86.56
2023-02-16T07:49:56.266Z,86.72
2023-02-16T07:52:22.772Z,86.21
2023-02-16T07:54:49.218Z,85.90
2023-02-16T07:57:15.626Z,85.76
2023-02-16T07:59:42.155Z,85.43
2023-02-16T08:02:15.647Z,85.37
2023-02-16T08:04:42.438Z,85.63
2023-02-16T08:07:14.094Z,85.58
2023-02-16T08:09:40.848Z,85.42
2023-02-16T08:12:12.208Z,85.32
2023-02-16T08:14:38.975Z,85.27
2023-02-16T08:17:06.644Z,84.91
2023-02-16T08:19:33.522Z,84.83
2023-02-16T08:22:02.298Z,84.60
2023-02-16T08:24:28.832Z,84.96
2023-02-16T08:26:55.713Z,84.83
2023-02-16T08:29:25.078Z,84.35
2023-02-16T08:31:53.123Z,84.37
2023-02-16T08:34:20.347Z,84.18
2023-02-16T08:36:51.143Z,84.37
2023-02-16T08:39:19.842Z,84.21
2023-02-16T08:41:48.069Z,84.16
2023-02-16T08:44:16.360Z,83.66
2023-02-16T08:46:44.627Z,83.74
2023-02-16T08:49:12.256Z,83.56
2023-02-16T08:51:45.963Z,82.97
2023-02-16T08:54:18.494Z,82.77
2023-02-16T08:56:47.835Z,82.95
2023-02-16T08:59:16.280Z,82.33
2023-02-16T09:01:42.817Z,82.32
2023-02-16T09:04:09.768Z,82.50
2023-02-16T09:06:38.611Z,82.57
2023-02-16T09:09:05.971Z,82.39
2023-02-16T09:11:32.886Z,81.91
2023-02-16T09:13:59.644Z,81.98
2023-02-16T09:16:27.971Z,81.89
2023-02-16T09:18:55.148Z,81.13
2023-02-16T09:21:25.385Z,80.56
2023-02-16T09:23:55.647Z,80.54
2023-02-16T09:26:24.378Z,80.56
2023-02-16T09:28:51.676Z,80.58
2023-02-16T09:31:26.980Z,80.23
2023-02-16T09:33:56.040Z,80.11
2023-02-16T09:36:22.528Z,79.77
2023-02-16T09:38:50.070Z,79.56
2023-02-16T09:41:41.023Z,79.43
2023-02-16T09:44:28.688Z,79.23
2023-02-16T09:46:58.564Z,79.24
2023-02-16T09:49:45.002Z,79.80
2023-02-16T09:52:23.010Z,79.04
2023-02-16T09:54:53.208Z,78.69
2023-02-16T09:57:38.264Z,78.38
2023-02-16T10:00:24.357Z,78.95
2023-02-16T10:03:13.259Z,78.72
2023-02-16T10:06:13.639Z,78.89
2023-02-16T10:08:48.800Z,78.45
2023-02-16T10:11:46.483Z,78.27
2023-02-16T10:14:33.443Z,78.47
2023-02-16T10:17:30.043Z,78.43
2023-02-16T10:20:06.582Z,78.66
2023-02-16T10:22:50.113Z,78.70
2023-02-16T10:25:32.262Z,78.72
2023-02-16T10:28:13.883Z,78.59
2023-02-16T10:30:48.098Z,78.50
2023-02-16T10:33:31.854Z,78.69
2023-02-16T10:36:03.058Z,78.76
2023-02-16T10:38:41.580Z,78.70
2023-02-16T10:41:15.845Z,79.07
2023-02-16T10:43:45.142Z,79.02
2023-02-16T10:46:19.503Z,78.76
2023-02-16T10:48:46.531Z,78.01
2023-02-16T10:51:16.709Z,78.37
2023-02-16T10:53:51.224Z,78.43
2023-02-16T10:56:36.245Z,78.49
2023-02-16T10:59:07.574Z,78.97
2023-02-16T11:01:45.006Z,79.44
2023-02-16T11:04:31.423Z,79.32
2023-02-16T11:07:17.777Z,78.87
2023-02-16T11:09:46.522Z,78.65
2023-02-16T11:12:16.692Z,78.94
2023-02-16T11:14:50.703Z,78.69
2023-02-16T11:17:20.420Z,78.65
2023-02-16T11:20:05.529Z,78.88
2023-02-16T11:22:33.849Z,80.19
2023-02-16T11:25:19.833Z,80.50
2023-02-16T11:27:57.305Z,80.48
2023-02-16T11:30:37.608Z,81.22
2023-02-16T11:33:20.868Z,81.67
2023-02-16T11:35:47.852Z,81.20
2023-02-16T11:38:31.514Z,82.96
2023-02-16T11:41:00.595Z,83.02
2023-02-16T11:43:31.075Z,83.47
2023-02-16T11:46:13.240Z,84.35
2023-02-16T11:48:40.346Z,85.02
2023-02-16T11:51:10.516Z,86.50
2023-02-16T11:53:43.139Z,86.32
2023-02-16T11:56:22.137Z,86.50
2023-02-16T11:59:12.912Z,88.44
2023-02-16T12:01:45.024Z,88.27
2023-02-16T12:04:18.424Z,88.14
2023-02-16T12:06:51.585Z,88.34
2023-02-16T12:09:43.144Z,89.41
2023-02-16T12:12:12.335Z,88.32
2023-02-16T12:15:03.249Z,88.46
2023-02-16T12:18:11.776Z,88.36
2023-02-16T12:21:02.629Z,88.05
2023-02-16T12:23:39.648Z,87.89
2023-02-16T12:26:31.608Z,88.22
2023-02-16T12:29:24.139Z,88.02
2023-02-16T12:32:31.019Z,87.37
2023-02-16T12:35:09.922Z,87.13
2023-02-16T12:37:58.428Z,86.83
2023-02-16T12:40:47.330Z,85.84
2023-02-16T12:43:41.997Z,86.02
2023-02-16T12:46:18.222Z,85.99
2023-02-16T12:48:56.929Z,86.32
2023-02-16T12:51:32.478Z,86.87
2023-02-16T12:54:17.542Z,86.50
2023-02-16T12:56:52.546Z,86.60
2023-02-16T12:59:29.742Z,86.64
2023-02-16T13:01:58.613Z,87.17
2023-02-16T13:04:29.700Z,87.08
2023-02-16T13:07:15.676Z,87.47
2023-02-16T13:09:57.689Z,86.99
2023-02-16T13:12:39.331Z,87.47
2023-02-16T13:15:17.357Z,87.21
2023-02-16T13:17:56.999Z,87.03
2023-02-16T13:20:24.787Z,87.25
2023-02-16T13:22:58.479Z,86.83
2023-02-16T13:25:54.956Z,86.46
2023-02-16T13:28:45.930Z,86.68
2023-02-16T13:31:31.259Z,86.98
2023-02-16T13:34:19.983Z,86.57
2023-02-16T13:37:09.187Z,86.91
2023-02-16T13:39:53.866Z,88.15
2023-02-16T13:42:52.553Z,89.11
2023-02-16T13:45:22.917Z,89.43
2023-02-16T13:47:53.219Z,90.36
2023-02-16T13:50:23.641Z,92.35
2023-02-16T13:52:56.562Z,94.73
2023-02-16T13:55:33.531Z,95.18
2023-02-16T13:58:14.029Z,96.33
2023-02-16T14:00:48.996Z,97.00
2023-02-16T14:03:21.353Z,97.86
2023-02-16T14:05:53.134Z,98.88
2023-02-16T14:08:30.711Z,100.00
2023-02-16T14:11:03.813Z,100.00
2023-02-16T14:13:39.444Z,100.00
2023-02-16T14:16:14.870Z,100.00
2023-02-16T14:18:43.975Z,100.00
2023-02-16T14:21:27.492Z,100.00
2023-02-16T14:23:56.350Z,100.00
2023-02-16T14:26:23.317Z,100.00
2023-02-16T14:29:01.091Z,97.86
2023-02-16T14:31:29.499Z,96.84
2023-02-16T14:34:05.547Z,96.09
2023-02-16T14:36:33.115Z,94.70
2023-02-16T14:39:01.401Z,93.46
2023-02-16T14:41:36.765Z,91.62
2023-02-16T14:44:05.906Z,88.92
2023-02-16T14:46:47.589Z,89.13
2023-02-16T14:49:33.850Z,88.94
2023-02-16T14:52:35.819Z,88.91
2023-02-16T14:55:45.937Z,88.30
2023-02-16T14:58:30.368Z,88.45
2023-02-16T15:01:12.853Z,87.91
2023-02-16T15:03:51.749Z,87.02
2023-02-16T15:06:20.922Z,87.07
2023-02-16T15:08:58.070Z,86.92
2023-02-16T15:11:30.471Z,86.09
2023-02-16T15:14:11.303Z,85.83
2023-02-16T15:16:40.998Z,86.80
2023-02-16T15:19:12.016Z,85.50
2023-02-16T15:21:39.205Z,85.38
2023-02-16T15:24:07.598Z,85.70
2023-02-16T15:26:35.867Z,86.22
2023-02-16T15:29:21.262Z,86.52
2023-02-16T15:31:48.588Z,85.94
2023-02-16T15:34:35.596Z,86.08
2023-02-16T15:37:22.544Z,86.09
2023-02-16T15:40:08.715Z,86.87
2023-02-16T15:42:35.777Z,87.13
2023-02-16T15:45:25.768Z,86.54
2023-02-16T15:47:53.434Z,86.77
2023-02-16T15:50:26.777Z,87.63
2023-02-16T15:52:54.027Z,87.27
2023-02-16T15:55:20.569Z,87.08
2023-02-16T15:57:47.014Z,87.05
2023-02-16T16:00:21.560Z,87.36
2023-02-16T16:02:59.055Z,87.18
2023-02-16T16:05:28.133Z,87.01
2023-02-16T16:07:56.865Z,87.87
2023-02-16T16:10:32.349Z,87.86
2023-02-16T16:13:03.006Z,87.71
2023-02-16T16:15:40.639Z,87.99
2023-02-16T16:18:39.053Z,87.80
2023-02-16T16:21:23.697Z,88.49
2023-02-16T16:24:00.301Z,87.91
2023-02-16T16:26:30.016Z,87.69
2023-02-16T16:28:57.351Z,87.83
2023-02-16T16:31:23.740Z,87.44
2023-02-16T16:34:01.176Z,86.79
2023-02-16T16:37:02.683Z,86.56
2023-02-16T16:39:35.307Z,86.24
2023-02-16T16:42:21.275Z,86.16
2023-02-16T16:45:19.727Z,85.86
2023-02-16T16:47:51.191Z,85.62
2023-02-16T16:50:18.210Z,85.86
2023-02-16T16:52:47.536Z,85.50
2023-02-16T16:55:20.024Z,85.06
2023-02-16T16:57:48.419Z,84.97
2023-02-16T17:00:15.971Z,84.40
2023-02-16T17:02:43.015Z,84.04
2023-02-16T17:05:09.534Z,83.62
2023-02-16T17:07:36.152Z,83.11
2023-02-16T17:10:02.759Z,82.52
2023-02-16T17:12:29.625Z,82.28
2023-02-16T17:14:56.119Z,82.23
2023-02-16T17:17:22.804Z,82.23
2023-02-16T17:19:49.195Z,81.93
2023-02-16T17:22:18.530Z,81.80
2023-02-16T17:24:45.020Z,81.55
2023-02-16T17:27:11.966Z,81.19
2023-02-16T17:29:38.962Z,81.25
2023-02-16T17:32:05.747Z,81.11
2023-02-16T17:34:32.179Z,81.69
2023-02-16T17:37:00.823Z,81.96
2023-02-16T17:39:27.210Z,82.26
2023-02-16T17:41:53.657Z,81.49
2023-02-16T17:44:20.055Z,81.49
2023-02-16T17:46:46.532Z,81.31
2023-02-16T17:49:13.358Z,81.29
2023-02-16T17:51:39.792Z,80.78
2023-02-16T17:54:08.564Z,80.89
2023-02-16T17:56:36.491Z,81.57
2023-02-16T17:59:03.469Z,81.27
2023-02-16T18:01:29.942Z,81.47
2023-02-16T18:03:56.533Z,81.53
2023-02-16T18:06:28.908Z,81.20
2023-02-16T18:08:55.613Z,81.86
2023-02-16T18:11:22.294Z,82.16
2023-02-16T18:13:48.751Z,82.10
2023-02-16T18:16:21.693Z,82.16
2023-02-16T18:18:48.207Z,81.93
2023-02-16T18:21:14.612Z,81.87
2023-02-16T18:23:41.784Z,82.43
2023-02-16T18:26:08.254Z,82.96
2023-02-16T18:28:34.971Z,83.27
2023-02-16T18:31:05.344Z,83.51
2023-02-16T18:33:33.900Z,83.63
2023-02-16T18:36:01.326Z,84.28
2023-02-16T18:38:27.980Z,84.67
2023-02-16T18:40:55.109Z,87.89
2023-02-16T18:43:22.395Z,88.69
2023-02-16T18:45:49.323Z,88.58
2023-02-16T18:48:15.988Z,88.27
2023-02-16T18:50:42.647Z,88.83
2023-02-16T18:53:09.036Z,88.70
2023-02-16T18:55:35.799Z,88.52
2023-02-16T18:58:06.705Z,88.29
2023-02-16T19:00:34.506Z,88.32
2023-02-16T19:03:00.905Z,88.36
2023-02-16T19:05:27.456Z,89.25
2023-02-16T19:07:53.806Z,89.18
2023-02-16T19:10:20.303Z,89.11
2023-02-16T19:12:46.674Z,89.31
2023-02-16T19:15:13.395Z,89.63
2023-02-16T19:17:39.895Z,90.04
2023-02-16T19:20:09.699Z,89.92
2023-02-16T19:22:37.147Z,89.63
2023-02-16T19:25:06.701Z,89.50
2023-02-16T19:27:33.669Z,89.48
2023-02-16T19:30:00.178Z,90.04
2023-02-16T19:32:27.054Z,90.36
2023-02-16T19:34:53.425Z,90.39
2023-02-16T19:37:19.794Z,90.39
2023-02-16T19:39:46.638Z,90.36
2023-02-16T19:42:13.115Z,90.45
2023-02-16T19:44:40.314Z,90.20
2023-02-16T19:47:07.164Z,90.22
2023-02-16T19:49:35.595Z,90.58
2023-02-16T19:52:04.059Z,90.62
2023-02-16T19:54:34.574Z,90.79
2023-02-16T19:57:01.866Z,90.58
2023-02-16T19:59:28.344Z,90.60
2023-02-16T20:01:54.888Z,91.09
2023-02-16T20:04:21.373Z,90.86
2023-02-16T20:06:48.781Z,90.75
2023-02-16T20:09:17.563Z,91.20
2023-02-16T20:11:44.071Z,91.38
2023-02-16T20:14:11.770Z,91.28
2023-02-16T20:16:39.092Z,91.20
2023-02-16T20:19:06.016Z,91.07
2023-02-16T20:21:33.214Z,90.91
2023-02-16T20:24:02.078Z,90.76
2023-02-16T20:26:33.940Z,91.21
2023-02-16T20:29:01.112Z,91.23
2023-02-16T20:31:33.923Z,91.27
2023-02-16T20:34:01.027Z,91.16
2023-02-16T20:36:27.616Z,91.62
2023-02-16T20:38:54.404Z,91.78
2023-02-16T20:41:21.438Z,91.45
2023-02-16T20:43:48.122Z,91.54
2023-02-16T20:46:15.633Z,91.45
2023-02-16T20:48:42.263Z,91.50
2023-02-16T20:51:10.605Z,91.61
2023-02-16T20:53:37.074Z,92.23
2023-02-16T20:56:16.550Z,92.30
2023-02-16T20:58:44.358Z,92.21
2023-02-16T21:01:38.582Z,92.49
2023-02-16T21:04:07.269Z,93.03
2023-02-16T21:06:34.743Z,93.05
2023-02-16T21:09:01.548Z,92.99
2023-02-16T21:11:28.047Z,93.14
2023-02-16T21:13:54.518Z,93.79
2023-02-16T21:16:21.756Z,94.33
2023-02-16T21:18:48.282Z,94.89
2023-02-16T21:21:17.581Z,94.75
2023-02-16T21:23:47.914Z,94.93
2023-02-16T21:26:14.513Z,95.55
2023-02-16T21:28:41.682Z,95.57
2023-02-16T21:31:14.528Z,95.53
2023-02-16T21:33:41.007Z,95.97
2023-02-16T21:36:10.789Z,95.66
2023-02-16T21:38:38.561Z,95.67
2023-02-16T21:41:29.113Z,95.62
2023-02-16T21:44:08.968Z,95.86
2023-02-16T21:46:38.295Z,96.53
2023-02-16T21:49:07.551Z,96.75
2023-02-16T21:51:36.422Z,96.96
2023-02-16T21:54:05.628Z,97.47
2023-02-16T21:56:34.900Z,97.56
2023-02-16T21:59:01.975Z,97.59
2023-02-16T22:01:31.009Z,97.74
2023-02-16T22:04:00.271Z,98.26
2023-02-16T22:06:35.600Z,98.57
2023-02-16T22:09:06.240Z,98.95
2023-02-16T22:11:32.818Z,98.84
2023-02-16T22:14:00.195Z,99.34
2023-02-16T22:16:28.060Z,99.40
2023-02-16T22:19:04.974Z,99.40
2023-02-16T22:21:38.198Z,99.69
2023-02-16T22:24:05.756Z,99.80
2023-02-16T22:26:34.343Z,99.80
2023-02-16T22:29:03.417Z,100.00
2023-02-16T22:31:29.949Z,99.95
2023-02-16T22:34:01.684Z,99.92
2023-02-16T22:36:29.200Z,99.85
2023-02-16T22:38:56.136Z,99.96
2023-02-16T22:41:23.661Z,100.00
2023-02-16T22:43:54.941Z,100.00
2023-02-16T22:46:23.050Z,100.00
2023-02-16T22:48:49.543Z,99.92
2023-02-16T22:51:16.976Z,99.92
2023-02-16T22:53:44.114Z,100.00
2023-02-16T22:56:14.120Z,100.00
2023-02-16T22:58:40.701Z,100.00
2023-02-16T23:01:12.596Z,100.00
2023-02-16T23:03:39.158Z,100.00
2023-02-16T23:06:17.040Z,99.58
2023-02-16T23:08:44.800Z,99.74
2023-02-16T23:11:11.979Z,99.90
2023-02-16T23:13:39.017Z,99.92
2023-02-16T23:16:08.841Z,99.67
2023-02-16T23:18:35.297Z,99.29
2023-02-16T23:21:18.283Z,99.00
2023-02-16T23:23:46.202Z,99.21
2023-02-16T23:26:13.841Z,99.03
2023-02-16T23:28:42.628Z,99.15
2023-02-16T23:31:09.602Z,99.09
2023-02-16T23:33:36.077Z,99.68
2023-02-16T23:36:02.715Z,99.87
2023-02-16T23:38:29.491Z,100.00
2023-02-16T23:40:57.943Z,100.00
2023-02-16T23:43:25.037Z,100.00
2023-02-16T23:45:52.468Z,100.00
2023-02-16T23:48:18.985Z,100.00
2023-02-16T23:50:45.448Z,100.00
2023-02-16T23:53:11.868Z,100.00
2023-02-16T23:55:38.298Z,100.00
2023-02-16T23:58:04.717Z,100.00
